Time;durP1;ratioP1;P1;durP2;ratioP2;P2;SDS_P1;SDS_P2;PMS_P1;PMS_P2;Temp;Humidity;BMP_temperature;BMP_pressure;BME280_temperature;BME280_humidity;BME280_pressure;Samples;Min_cycle;Max_cycle;Signal;HPM_P1;HPM_P2
2023/10/03 08:36:17;;;;;;;;;4.00;4.00;;;;;23.61;54.11;101338.13;4920361;28;45288;-51
2023/10/03 08:38:43;;;;;;;;;3.75;3.75;;;;;23.62;53.67;101339.81;4920129;28;47212;-50
2023/10/03 08:41:17;;;;;;;;;4.00;4.00;;;;;23.63;53.45;101340.69;4920624;28;45352;-50
2023/10/03 08:43:45;;;;;;;;;4.00;3.00;;;;;23.61;53.32;101346.06;4920861;28;45222;-52
2023/10/03 08:46:15;;;;;;;;;3.50;3.50;;;;;23.61;53.29;101343.41;4921232;28;45317;-51
2023/10/03 08:48:43;;;;;;;;;3.25;2.00;;;;;23.60;53.21;101347.00;4920495;28;46063;-52
2023/10/03 08:51:13;;;;;;;;;3.00;3.00;;;;;23.60;53.20;101359.38;4920684;28;45309;-49
2023/10/03 08:53:47;;;;;;;;;1.75;1.75;;;;;23.61;53.10;101379.63;4920775;28;45570;-44
2023/10/03 08:56:18;;;;;;;;;3.25;2.00;;;;;23.61;52.59;101369.03;4920922;28;45334;-48
2023/10/03 08:58:48;;;;;;;;;2.75;2.75;;;;;23.60;52.89;101367.31;4920363;28;46831;-46
2023/10/03 09:01:18;;;;;;;;;2.50;2.50;;;;;23.60;53.06;101367.31;4920209;28;45850;-49
2023/10/03 09:03:49;;;;;;;;;3.00;3.00;;;;;23.60;52.87;101378.75;4920473;28;45287;-45
2023/10/03 09:06:19;;;;;;;;;2.25;2.25;;;;;23.60;53.07;101388.50;4920511;28;45533;-46
2023/10/03 09:09:08;;;;;;;;;3.00;3.00;;;;;23.60;52.42;101399.91;4918960;28;46361;-47
2023/10/03 09:11:37;;;;;;;;;4.25;2.75;;;;;23.60;52.98;101393.78;4919577;28;45405;-49
2023/10/03 09:14:07;;;;;;;;;4.50;2.00;;;;;23.60;52.54;101399.91;4920646;28;45296;-52
2023/10/03 09:16:38;;;;;;;;;1.50;1.50;;;;;23.61;53.01;101414.00;4920754;28;45333;-54
2023/10/03 09:19:05;;;;;;;;;3.25;3.00;;;;;23.60;52.69;101414.94;4920406;28;46174;-49
2023/10/03 09:21:30;;;;;;;;;3.00;3.00;;;;;23.61;52.87;101427.25;4918894;28;45332;-49
2023/10/03 09:24:12;;;;;;;;;5.25;2.75;;;;;23.60;52.47;101428.19;4920262;28;45379;-55
2023/10/03 09:26:45;;;;;;;;;3.00;3.00;;;;;23.60;52.48;101426.38;4920785;28;45348;-43
2023/10/03 09:29:29;;;;;;;;;3.00;2.00;;;;;23.61;52.66;101430.72;4920069;28;46848;-52
2023/10/03 09:31:57;;;;;;;;;5.00;2.50;;;;;23.60;52.61;101442.25;4919923;28;45355;-53
2023/10/03 09:34:22;;;;;;;;;1.75;1.75;;;;;23.59;52.00;101450.28;4920005;28;45239;-49
2023/10/03 09:36:48;;;;;;;;;2.50;2.00;;;;;23.59;52.42;101456.41;4920264;28;45571;-52
2023/10/03 09:39:21;;;;;;;;;3.00;2.00;;;;;23.60;51.60;101459.94;4919618;28;46219;-53
2023/10/03 09:41:52;;;;;;;;;2.00;1.00;;;;;23.58;51.69;101467.97;4919670;28;45825;-50
2023/10/03 09:44:27;;;;;;;;;1.00;1.00;;;;;23.59;51.42;101466.16;4919849;28;45337;-48
2023/10/03 09:47:00;;;;;;;;;2.50;1.25;;;;;23.57;51.88;101471.56;4920069;28;45442;-50
2023/10/03 09:49:36;;;;;;;;;1.00;1.00;;;;;23.57;51.36;101468.03;4918105;28;45377;-52
2023/10/03 09:52:07;;;;;;;;;2.00;1.75;;;;;23.56;51.36;101482.22;4919721;28;45880;-48
2023/10/03 09:54:35;;;;;;;;;1.25;1.25;;;;;23.56;51.40;101491.03;4918505;28;45278;-53
2023/10/03 09:57:01;;;;;;;;;1.75;0.00;;;;;23.56;51.43;101492.78;4919755;28;45600;-50
2023/10/03 09:59:27;;;;;;;;;2.00;1.00;;;;;23.55;51.17;101509.59;4919048;28;46143;-51
2023/10/03 10:01:56;;;;;;;;;1.75;1.75;;;;;23.53;50.70;101504.41;4919395;28;45721;-52
2023/10/03 10:04:25;;;;;;;;;1.00;1.00;;;;;23.55;50.85;101517.53;4919653;28;45240;-50
2023/10/03 10:06:59;;;;;;;;;1.00;1.00;;;;;23.54;50.54;101526.44;4919860;28;45399;-53
2023/10/03 10:09:40;;;;;;;;;2.25;1.50;;;;;23.52;50.90;101529.16;4919384;28;47213;-54
2023/10/03 10:12:13;;;;;;;;;3.00;2.00;;;;;23.51;50.51;101527.47;4919648;28;45755;-51
2023/10/03 10:15:00;;;;;;;;;2.50;2.50;;;;;23.52;50.78;101520.41;4919842;28;45315;-51
2023/10/03 10:17:39;;;;;;;;;1.25;1.25;;;;;23.52;50.21;101525.69;4919614;28;45378;-49
2023/10/03 10:20:09;;;;;;;;;4.75;2.50;;;;;23.51;50.64;101531.91;4919365;28;46343;-45
2023/10/03 10:23:01;;;;;;;;;3.00;2.00;;;;;23.50;50.17;101544.28;4919091;28;45897;-51
2023/10/03 10:25:31;;;;;;;;;2.75;2.75;;;;;23.51;50.19;101547.78;4919324;28;45351;-48
2023/10/03 10:28:06;;;;;;;;;2.00;2.00;;;;;23.51;50.54;101563.66;4919548;28;45446;-50
2023/10/03 10:30:36;;;;;;;;;2.25;2.00;;;;;23.51;50.41;101553.09;4919067;28;45232;-49
2023/10/03 10:33:23;;;;;;;;;2.75;1.00;;;;;23.52;50.27;101560.91;4919090;28;45474;-48
2023/10/03 10:35:56;;;;;;;;;1.75;1.75;;;;;23.52;49.64;101565.38;4933821;28;45563;-54
2023/10/03 10:38:31;;;;;;;;;3.75;1.00;;;;;23.53;49.68;101575.84;4919246;28;45500;-55
2023/10/03 10:41:17;;;;;;;;;2.00;1.50;;;;;23.55;50.09;101575.75;4918763;28;46513;-52
2023/10/03 10:44:09;;;;;;;;;3.00;2.00;;;;;23.55;49.99;101578.41;4918986;28;45756;-46
2023/10/03 10:46:36;;;;;;;;;1.25;1.25;;;;;23.54;49.38;101582.00;4917835;28;45295;-45
2023/10/03 10:49:06;;;;;;;;;3.00;1.00;;;;;23.56;49.54;101598.63;4919121;28;45466;-51
2023/10/03 10:51:35;;;;;;;;;3.00;2.00;;;;;23.55;49.22;101597.78;4917334;28;48011;-52
2023/10/03 10:54:02;;;;;;;;;2.25;2.25;;;;;23.55;49.35;101610.16;4918787;28;45662;-51
2023/10/03 10:56:28;;;;;;;;;5.25;2.00;;;;;23.56;49.20;101617.16;4918978;28;45426;-53
2023/10/03 10:59:07;;;;;;;;;4.50;3.00;;;;;23.57;49.40;101626.81;4917802;28;45511;-51
2023/10/03 11:01:38;;;;;;;;;2.75;2.00;;;;;23.54;49.24;101616.38;4918220;28;45307;-54
2023/10/03 11:04:05;;;;;;;;;3.75;3.00;;;;;23.53;48.81;101626.13;4918677;28;45709;-50
2023/10/03 11:06:30;;;;;;;;;6.75;3.00;;;;;23.52;48.74;101628.88;4917310;28;45279;-48
2023/10/03 11:08:56;;;;;;;;;0.00;0.00;;;;;23.52;48.55;101636.81;4918960;28;45355;-53
2023/10/03 11:11:34;;;;;;;;;3.00;3.00;;;;;23.53;48.71;101625.28;4918449;28;47124;-53
2023/10/03 11:13:59;;;;;;;;;3.00;2.25;;;;;23.52;48.88;101636.81;4918682;28;45622;-47
2023/10/03 11:16:26;;;;;;;;;2.50;2.50;;;;;23.52;48.46;101634.16;4918603;28;45244;-50
2023/10/03 11:18:54;;;;;;;;;5.25;3.00;;;;;23.54;48.12;101642.84;4918618;28;45836;-50
2023/10/03 11:21:21;;;;;;;;;1.00;1.00;;;;;23.55;48.20;101636.63;4918207;28;46524;-45
2023/10/03 11:24:08;;;;;;;;;4.00;3.00;;;;;23.55;48.54;101648.06;4918479;28;45768;-47
2023/10/03 11:26:48;;;;;;;;;3.50;2.00;;;;;23.55;48.44;101642.78;4918571;28;45409;-47
2023/10/03 11:29:17;;;;;;;;;5.75;3.00;;;;;23.55;48.56;101656.00;4918942;28;45573;-51
2023/10/03 11:31:43;;;;;;;;;2.25;2.25;;;;;23.56;47.91;101662.13;4918526;28;46158;-47
2023/10/03 11:34:09;;;;;;;;;4.00;3.00;;;;;23.56;48.44;101663.00;4918443;28;45662;-51
2023/10/03 11:36:43;;;;;;;;;4.00;2.50;;;;;23.55;48.11;101663.94;4918421;28;45446;-51
2023/10/03 11:39:11;;;;;;;;;4.00;2.75;;;;;23.56;48.33;101670.06;4917088;28;45297;-48
2023/10/03 11:41:39;;;;;;;;;3.25;2.00;;;;;23.56;47.98;101665.66;4917942;28;46320;-51
2023/10/03 11:44:21;;;;;;;;;5.50;3.75;;;;;23.56;48.30;101678.00;4916853;28;45418;-54
2023/10/03 11:46:47;;;;;;;;;4.00;3.25;;;;;23.55;47.76;101684.25;4918481;28;45340;-51
2023/10/03 11:49:15;;;;;;;;;1.00;1.00;;;;;23.56;47.84;101689.47;4918673;28;45443;-55
2023/10/03 11:51:44;;;;;;;;;2.00;2.00;;;;;23.54;48.15;101679.88;4917879;28;46063;-55
2023/10/03 11:54:16;;;;;;;;;3.25;2.00;;;;;23.54;47.76;101686.06;4918023;28;45193;-50
2023/10/03 11:56:43;;;;;;;;;4.00;2.75;;;;;23.55;47.79;101676.31;4918296;28;45394;-50
2023/10/03 11:59:10;;;;;;;;;3.75;2.00;;;;;23.55;47.43;101687.75;4918306;28;45581;-51
2023/10/03 12:01:35;;;;;;;;;2.00;2.00;;;;;23.55;47.32;101689.53;4917798;28;47146;-54
2023/10/03 12:04:02;;;;;;;;;2.00;2.00;;;;;23.55;47.38;101692.19;4932744;28;45455;-52
2023/10/03 12:06:27;;;;;;;;;2.25;2.00;;;;;23.55;47.26;101694.81;4918036;28;45343;-52
2023/10/03 12:08:53;;;;;;;;;4.50;2.25;;;;;23.53;46.82;101702.88;4916916;28;45534;-47
2023/10/03 12:11:20;;;;;;;;;2.00;2.00;;;;;23.56;46.61;101704.47;4917104;28;67844;-49
2023/10/03 12:13:45;;;;;;;;;2.25;2.00;;;;;23.56;47.21;101701.84;4921092;28;45287;-46
2023/10/03 12:16:10;;;;;;;;;3.25;3.25;;;;;23.56;46.63;101720.34;4921412;28;45424;-44
2023/10/03 12:18:37;;;;;;;;;4.50;2.00;;;;;23.53;46.70;101721.38;4921434;28;45526;-52
2023/10/03 12:21:03;;;;;;;;;4.00;2.25;;;;;23.53;46.52;101731.97;4920967;28;46152;-46
2023/10/03 12:23:28;;;;;;;;;4.00;2.00;;;;;23.53;46.40;101744.34;4921030;28;45770;-47
2023/10/03 12:25:53;;;;;;;;;3.50;2.50;;;;;23.53;46.07;101744.34;4920649;28;52752;-55
2023/10/03 12:28:21;;;;;;;;;1.75;1.75;;;;;23.52;46.47;101751.41;4921131;28;45600;-47
2023/10/03 12:30:50;;;;;;;;;3.00;3.00;;;;;23.52;46.70;101750.59;4921177;28;45271;-51
2023/10/03 12:33:16;;;;;;;;;2.50;2.50;;;;;23.52;46.69;101750.59;4921072;28;45859;-51
2023/10/03 12:35:41;;;;;;;;;2.00;2.00;;;;;23.52;46.47;101750.59;4920856;28;45275;-42
2023/10/03 12:38:10;;;;;;;;;5.50;1.50;;;;;23.51;46.47;101749.72;4920531;28;45501;-45
2023/10/03 12:40:35;;;;;;;;;2.00;1.50;;;;;23.53;46.53;101752.28;4920719;28;46577;-45
2023/10/03 12:43:01;;;;;;;;;3.00;2.00;;;;;23.53;46.69;101749.66;4920637;28;45169;-45
2023/10/03 12:45:26;;;;;;;;;3.00;2.25;;;;;23.54;46.43;101761.91;4920483;28;47860;-45
2023/10/03 12:47:53;;;;;;;;;1.00;1.00;;;;;23.55;46.42;101774.22;4919729;28;45637;-52
2023/10/03 12:50:23;;;;;;;;;2.50;2.50;;;;;23.54;46.54;101772.50;4920649;28;47048;-54
2023/10/03 12:52:52;;;;;;;;;4.00;3.00;;;;;23.52;46.31;101784.97;4921048;28;45216;-51
2023/10/03 12:55:18;;;;;;;;;2.00;2.00;;;;;23.51;46.40;101789.41;4919928;28;45535;-50
2023/10/03 12:57:48;;;;;;;;;3.00;2.00;;;;;23.51;45.81;101799.16;4920728;28;45359;-53
2023/10/03 13:00:24;;;;;;;;;2.00;2.00;;;;;23.50;46.18;101790.34;4920347;28;45273;-52
2023/10/03 13:02:51;;;;;;;;;3.75;2.00;;;;;23.49;45.71;101801.00;4920600;28;45227;-48
2023/10/03 13:05:18;;;;;;;;;3.00;2.00;;;;;23.48;45.22;101802.81;4920732;28;45304;-50
2023/10/03 13:07:45;;;;;;;;;1.00;1.00;;;;;23.47;45.69;101801.94;4920526;28;45451;-52
2023/10/03 13:10:12;;;;;;;;;1.50;1.00;;;;;23.45;44.62;101809.09;4919958;28;46205;-45
2023/10/03 13:12:41;;;;;;;;;1.00;1.00;;;;;23.45;45.16;101806.44;4920362;28;45702;-47
2023/10/03 13:15:10;;;;;;;;;1.25;1.00;;;;;23.44;45.24;101807.38;4920206;28;45230;-49
2023/10/03 13:17:37;;;;;;;;;3.50;2.00;;;;;23.44;44.76;101812.69;4920327;28;45607;-50
2023/10/03 13:20:04;;;;;;;;;2.00;1.00;;;;;23.44;45.21;101823.25;4918774;28;46268;-48
2023/10/03 13:22:29;;;;;;;;;2.50;1.00;;;;;23.44;45.18;101822.41;4919884;28;45651;-47
2023/10/03 13:24:55;;;;;;;;;1.75;1.00;;;;;23.44;44.52;101817.97;4920108;28;45274;-48
2023/10/03 13:27:20;;;;;;;;;1.00;1.00;;;;;23.44;44.62;101831.19;4919365;28;45724;-52
2023/10/03 13:29:46;;;;;;;;;1.00;1.00;;;;;23.44;44.21;101825.91;4919943;28;49518;-49
2023/10/03 13:32:11;;;;;;;;;1.75;1.00;;;;;23.44;44.25;101827.72;4920105;28;45480;-49
2023/10/03 13:34:37;;;;;;;;;1.00;1.00;;;;;23.44;44.93;101828.56;4920214;28;45471;-51
2023/10/03 13:37:03;;;;;;;;;1.50;1.50;;;;;23.45;44.10;101835.56;4920239;28;45745;-44
2023/10/03 13:39:29;;;;;;;;;1.50;1.00;;;;;23.45;44.60;101834.72;4919412;28;46126;-51
2023/10/03 13:41:54;;;;;;;;;2.00;2.00;;;;;23.45;45.02;101840.00;4919874;28;45425;-51
2023/10/03 13:44:20;;;;;;;;;0.50;0.50;;;;;23.44;44.55;101839.13;4920360;28;45427;-53
2023/10/03 13:46:46;;;;;;;;;1.00;1.00;;;;;23.43;44.17;101841.88;4920006;28;45314;-55
2023/10/03 13:49:14;;;;;;;;;1.75;1.75;;;;;23.43;44.60;101837.41;4919255;28;45352;-49
2023/10/03 13:51:39;;;;;;;;;2.00;2.00;;;;;23.44;44.48;101843.59;4919811;28;45336;-54
2023/10/03 13:54:05;;;;;;;;;1.00;1.00;;;;;23.44;44.43;101855.00;4919917;28;45383;-52
2023/10/03 13:56:34;;;;;;;;;1.25;1.25;;;;;23.43;44.11;101855.94;4920008;28;45376;-53
2023/10/03 13:59:03;;;;;;;;;1.75;1.75;;;;;23.43;44.96;101857.75;4919608;28;45443;-48
2023/10/03 14:01:32;;;;;;;;;1.75;1.00;;;;;23.43;44.49;101863.88;4919542;28;45311;-49
2023/10/03 14:03:57;;;;;;;;;1.00;1.00;;;;;23.43;44.67;101869.16;4919827;28;45368;-52
2023/10/03 14:06:25;;;;;;;;;3.00;1.00;;;;;23.43;44.43;101870.97;4920057;28;45537;-50
2023/10/03 14:08:52;;;;;;;;;2.50;1.00;;;;;23.43;44.16;101868.31;4919683;28;45461;-52
2023/10/03 14:11:21;;;;;;;;;2.00;2.00;;;;;23.44;44.11;101885.91;4919442;28;45437;-50
2023/10/03 14:13:50;;;;;;;;;1.50;1.00;;;;;23.41;44.22;101884.28;4919492;28;45442;-54
2023/10/03 14:16:21;;;;;;;;;3.00;2.00;;;;;23.43;44.64;101894.78;4919604;28;45437;-49
2023/10/03 14:18:51;;;;;;;;;2.75;2.00;;;;;23.42;44.14;101899.22;4919408;28;45252;-52
2023/10/03 14:21:19;;;;;;;;;2.00;1.00;;;;;23.42;44.11;101901.88;4919283;28;45739;-52
2023/10/03 14:23:44;;;;;;;;;2.50;2.50;;;;;23.40;43.53;101905.50;4919522;28;45387;-55
2023/10/03 14:26:10;;;;;;;;;2.00;2.00;;;;;23.40;43.70;101916.09;4919544;28;45469;-52
2023/10/03 14:28:35;;;;;;;;;1.00;1.00;;;;;23.38;43.20;101924.13;4917366;28;63213;-52
2023/10/03 14:31:02;;;;;;;;;1.75;1.00;;;;;23.38;43.41;101928.53;4919213;28;45312;-48
2023/10/03 14:33:28;;;;;;;;;1.00;1.00;;;;;23.38;42.72;101915.31;4919313;28;45397;-50
2023/10/03 14:35:54;;;;;;;;;2.00;0.75;;;;;23.36;42.82;101920.69;4919224;28;45341;-52
2023/10/03 14:38:20;;;;;;;;;0.50;0.50;;;;;23.37;42.65;101926.84;4918789;28;46086;-53
2023/10/03 14:40:49;;;;;;;;;2.00;1.00;;;;;23.36;42.69;101923.34;4919031;28;45732;-48
2023/10/03 14:43:15;;;;;;;;;4.00;0.25;;;;;23.37;42.96;101924.22;4919113;28;45318;-46
2023/10/03 14:45:40;;;;;;;;;1.50;1.00;;;;;23.38;42.66;101939.13;4919237;28;45274;-45
2023/10/03 14:48:09;;;;;;;;;1.75;1.75;;;;;23.37;42.71;101937.44;4918822;28;46245;-49
2023/10/03 14:50:34;;;;;;;;;0.00;0.00;;;;;23.36;41.96;101930.44;4919176;28;45704;-50
2023/10/03 14:53:00;;;;;;;;;2.00;1.00;;;;;23.35;41.93;101945.44;4918992;28;45326;-48
2023/10/03 14:55:27;;;;;;;;;0.00;0.00;;;;;23.36;41.87;101946.31;4919361;28;45414;-50
2023/10/03 14:57:54;;;;;;;;;1.50;0.00;;;;;23.34;42.40;101941.06;4919107;28;46041;-49
2023/10/03 15:00:19;;;;;;;;;1.50;0.00;;;;;23.35;42.50;101950.72;4918861;28;45634;-51
2023/10/03 15:02:44;;;;;;;;;2.75;1.00;;;;;23.35;42.37;101956.00;4918953;28;45751;-49
2023/10/03 15:05:10;;;;;;;;;0.25;0.25;;;;;23.36;42.30;101956.88;4919012;28;45346;-49
2023/10/03 15:07:37;;;;;;;;;1.00;1.00;;;;;23.36;42.32;101968.31;4917453;28;47981;-49
2023/10/03 15:10:02;;;;;;;;;0.25;0.25;;;;;23.35;41.82;101966.59;4918626;28;45503;-48
2023/10/03 15:12:28;;;;;;;;;1.00;1.00;;;;;23.35;42.20;101963.94;4919178;28;45421;-46
2023/10/03 15:14:54;;;;;;;;;1.00;1.00;;;;;23.34;41.99;101964.88;4919338;28;45323;-51
2023/10/03 15:17:19;;;;;;;;;0.00;0.00;;;;;23.34;42.08;101962.22;4918514;28;46047;-51
2023/10/03 15:19:45;;;;;;;;;1.00;1.00;;;;;23.35;41.57;101971.88;4918560;28;45352;-51
2023/10/03 15:22:13;;;;;;;;;1.00;1.00;;;;;23.34;41.63;101970.16;4918632;28;45335;-49
2023/10/03 15:24:38;;;;;;;;;0.25;0.00;;;;;23.35;41.38;101973.69;4918866;28;45697;-50
2023/10/03 15:27:04;;;;;;;;;1.50;0.00;;;;;23.34;41.47;101978.09;4918649;28;46090;-53
2023/10/03 15:29:29;;;;;;;;;0.50;0.50;;;;;23.33;40.97;101978.19;4918648;28;45804;-44
2023/10/03 15:31:55;;;;;;;;;2.00;0.00;;;;;23.31;41.20;101981.75;4917649;28;45353;-53
2023/10/03 15:34:31;;;;;;;;;2.00;0.75;;;;;23.31;40.69;101986.22;4918838;28;45747;-51
2023/10/03 15:36:57;;;;;;;;;0.00;0.00;;;;;23.30;40.47;101980.06;4918586;28;47158;-50
2023/10/03 15:39:23;;;;;;;;;0.50;0.50;;;;;23.29;40.07;101980.97;4918140;28;45411;-45
2023/10/03 15:41:49;;;;;;;;;1.00;1.00;;;;;23.30;40.72;101985.34;4918452;28;45385;-44
2023/10/03 15:44:18;;;;;;;;;0.75;0.00;;;;;23.28;40.91;101997.78;4918615;28;45465;-46
2023/10/03 15:46:45;;;;;;;;;1.00;0.50;;;;;23.28;40.47;101997.78;4918136;28;45317;-47
2023/10/03 15:49:10;;;;;;;;;0.00;0.00;;;;;23.28;40.05;102002.22;4921784;28;46439;-54
2023/10/03 15:51:38;;;;;;;;;1.00;1.00;;;;;23.27;39.90;101993.41;4921874;28;45927;-46
2023/10/03 15:54:07;;;;;;;;;3.00;1.00;;;;;23.27;40.16;102001.34;4921904;28;45554;-52
2023/10/03 15:56:34;;;;;;;;;0.00;0.00;;;;;23.27;40.41;102011.09;4921581;28;45273;-53
2023/10/03 15:58:59;;;;;;;;;0.00;0.00;;;;;23.26;40.00;102009.38;4921868;28;45656;-54
2023/10/03 16:01:25;;;;;;;;;0.50;0.50;;;;;23.26;40.56;102018.16;4920286;28;45321;-49
2023/10/03 16:03:50;;;;;;;;;0.75;0.00;;;;;23.25;40.27;102024.41;4921699;28;45619;-49
2023/10/03 16:06:17;;;;;;;;;1.00;1.00;;;;;23.24;40.16;102027.97;4921212;28;45343;-55
2023/10/03 16:08:44;;;;;;;;;0.00;0.00;;;;;23.26;39.67;102034.03;4921336;28;45298;-53
2023/10/03 16:11:16;;;;;;;;;0.00;0.00;;;;;23.25;40.58;102040.28;4921482;28;45438;-52
2023/10/03 16:13:42;;;;;;;;;0.00;0.00;;;;;23.25;40.38;102037.63;4921612;28;45855;-53
2023/10/03 16:16:08;;;;;;;;;0.00;0.00;;;;;23.25;39.93;102044.69;4921264;28;45690;-48
2023/10/03 16:18:33;;;;;;;;;1.00;1.00;;;;;23.25;40.04;102050.84;4921266;28;45450;-47
2023/10/03 16:21:01;;;;;;;;;0.00;0.00;;;;;23.26;39.75;102064.91;4921705;28;45315;-47
2023/10/03 16:23:27;;;;;;;;;1.00;0.50;;;;;23.25;40.27;102060.56;4921380;28;45314;-55
2023/10/03 16:25:53;;;;;;;;;1.50;1.00;;;;;23.26;39.91;102070.22;4920972;28;45719;-47
2023/10/03 16:28:18;;;;;;;;;1.75;1.00;;;;;23.25;40.07;102064.06;4921108;28;45219;-47
2023/10/03 16:30:44;;;;;;;;;3.25;0.50;;;;;23.24;39.87;102059.72;4920629;28;56854;-52
2023/10/03 16:33:10;;;;;;;;;1.00;1.00;;;;;23.24;40.10;102072.06;4920826;28;48051;-47
2023/10/03 16:35:35;;;;;;;;;0.50;0.25;;;;;23.24;39.78;102080.00;4920916;28;45273;-46
2023/10/03 16:38:00;;;;;;;;;1.50;0.00;;;;;23.24;40.21;102078.22;4921074;28;45376;-50
2023/10/03 16:40:27;;;;;;;;;1.75;0.00;;;;;23.23;39.28;102073.00;4921033;28;45338;-52
2023/10/03 16:42:53;;;;;;;;;2.25;0.00;;;;;23.23;39.82;102078.28;4921030;28;45601;-49
2023/10/03 16:45:20;;;;;;;;;4.25;1.50;;;;;23.22;39.95;102079.22;4920797;28;45369;-54
2023/10/03 16:47:49;;;;;;;;;1.00;1.00;;;;;23.23;39.91;102080.94;4919419;28;45384;-55
2023/10/03 16:50:15;;;;;;;;;1.00;1.00;;;;;23.22;39.44;102079.22;4920823;28;45230;-52
2023/10/03 16:52:41;;;;;;;;;1.00;0.75;;;;;23.21;39.28;102085.44;4920959;28;45236;-55
2023/10/03 16:55:11;;;;;;;;;1.00;1.00;;;;;23.22;39.66;102097.72;4920669;28;45583;-48
2023/10/03 16:57:38;;;;;;;;;1.00;1.00;;;;;23.22;39.33;102101.25;4920118;28;45775;-51
2023/10/03 17:00:12;;;;;;;;;0.00;0.00;;;;;23.23;39.48;102104.72;4920997;28;45301;-47
2023/10/03 17:02:40;;;;;;;;;2.25;2.00;;;;;23.21;39.31;102106.59;4920598;28;45574;-51
2023/10/03 17:05:09;;;;;;;;;0.75;0.75;;;;;23.22;39.68;102108.31;4920369;28;46562;-52
2023/10/03 17:07:34;;;;;;;;;1.00;1.00;;;;;23.22;39.55;102126.81;4920649;28;45367;-52
2023/10/03 17:10:00;;;;;;;;;0.00;0.00;;;;;23.20;39.35;102118.97;4920508;28;45402;-50
2023/10/03 17:12:25;;;;;;;;;0.50;0.50;;;;;23.20;39.94;102120.78;4920670;28;45628;-56
2023/10/03 17:14:50;;;;;;;;;1.00;1.00;;;;;23.20;39.45;102120.78;4920098;28;45582;-49
2023/10/03 17:17:16;;;;;;;;;0.25;0.25;;;;;23.20;39.08;102118.13;4920257;28;45282;-52
2023/10/03 17:19:41;;;;;;;;;0.00;0.00;;;;;23.21;39.24;102127.75;4920326;28;45295;-49
2023/10/03 17:22:06;;;;;;;;;1.00;1.00;;;;;23.20;39.63;102120.78;4920329;28;45387;-48
2023/10/03 17:24:32;;;;;;;;;1.75;1.00;;;;;23.19;39.48;102122.53;4920418;28;45434;-46
2023/10/03 17:26:59;;;;;;;;;4.50;1.00;;;;;23.19;39.71;102124.31;4919955;28;45336;-49
2023/10/03 17:29:25;;;;;;;;;2.25;1.00;;;;;23.19;39.35;102132.25;4920032;28;45340;-52
2023/10/03 17:31:50;;;;;;;;;3.50;1.00;;;;;23.19;39.74;102134.88;4920182;28;45247;-53
2023/10/03 17:34:15;;;;;;;;;3.50;1.50;;;;;23.19;40.12;102137.53;4919425;28;58614;-53
2023/10/03 17:36:42;;;;;;;;;1.00;1.00;;;;;23.17;39.90;102133.16;4934759;28;45959;-51
2023/10/03 17:39:12;;;;;;;;;2.00;1.00;;;;;23.17;39.70;102138.47;4919967;28;45420;-52
2023/10/03 17:41:38;;;;;;;;;1.00;1.00;;;;;23.19;39.63;102137.53;4920108;28;45652;-45
2023/10/03 17:44:04;;;;;;;;;2.00;0.00;;;;;23.19;39.17;102148.09;4920019;28;46097;-49
2023/10/03 17:46:29;;;;;;;;;0.25;0.25;;;;;23.19;39.11;102145.47;4919726;28;45271;-52
2023/10/03 17:48:56;;;;;;;;;1.25;0.50;;;;;23.17;39.52;102146.38;4919939;28;45397;-55
2023/10/03 17:51:22;;;;;;;;;1.00;1.00;;;;;23.19;39.82;102146.34;4920112;28;45592;-50
2023/10/03 17:53:48;;;;;;;;;3.00;0.00;;;;;23.18;39.33;102149.88;4919577;28;46010;-47
2023/10/03 17:56:13;;;;;;;;;1.00;1.00;;;;;23.20;39.51;102155.16;4919725;28;45338;-54
2023/10/03 17:58:38;;;;;;;;;1.00;1.00;;;;;23.20;39.24;102157.78;4919768;28;45430;-46
2023/10/03 18:01:05;;;;;;;;;1.00;1.00;;;;;23.19;39.46;102161.34;4919860;28;45596;-48
2023/10/03 18:03:32;;;;;;;;;1.75;1.25;;;;;23.17;39.78;102159.63;4919461;28;46143;-48
2023/10/03 18:05:58;;;;;;;;;2.00;1.00;;;;;23.19;39.50;102167.50;4919500;28;45291;-47
2023/10/03 18:08:25;;;;;;;;;1.50;1.50;;;;;23.17;39.36;102167.56;4919670;28;45311;-52
2023/10/03 18:10:51;;;;;;;;;2.50;0.75;;;;;23.17;39.68;102169.31;4918882;28;45332;-51
2023/10/03 18:13:16;;;;;;;;;2.50;2.00;;;;;23.17;39.63;102178.13;4919302;28;47146;-49
2023/10/03 18:15:41;;;;;;;;;2.25;2.00;;;;;23.17;39.30;102175.47;4919298;28;45495;-48
2023/10/03 18:18:07;;;;;;;;;2.00;2.00;;;;;23.17;39.63;102180.78;4919484;28;51748;-50
2023/10/03 18:20:33;;;;;;;;;6.00;2.50;;;;;23.16;39.72;102181.69;4919554;28;45382;-49
2023/10/03 18:22:58;;;;;;;;;2.50;2.50;;;;;23.16;39.32;102187.00;4919042;28;46126;-50
2023/10/03 18:25:24;;;;;;;;;6.25;3.75;;;;;23.15;39.50;102182.63;4919115;28;45498;-53
2023/10/03 18:27:49;;;;;;;;;4.50;2.00;;;;;23.16;39.81;102187.00;4919336;28;45355;-48
2023/10/03 18:30:15;;;;;;;;;3.50;2.25;;;;;23.16;39.46;102189.63;4919306;28;45584;-54
2023/10/03 18:32:41;;;;;;;;;3.50;2.00;;;;;23.16;39.91;102187.00;4919155;28;46995;-48
2023/10/03 18:35:07;;;;;;;;;1.75;1.75;;;;;23.16;39.56;102200.22;4918593;28;45871;-48
2023/10/03 18:37:33;;;;;;;;;4.50;1.25;;;;;23.15;39.66;102198.50;4918960;28;45221;-48
2023/10/03 18:40:00;;;;;;;;;6.00;3.00;;;;;23.15;39.90;102197.66;4919249;28;45359;-52
2023/10/03 18:42:25;;;;;;;;;2.50;2.50;;;;;23.15;40.14;102200.28;4918763;28;47096;-50
2023/10/03 18:44:51;;;;;;;;;4.00;3.00;;;;;23.15;39.66;102203.78;4918899;28;45276;-49
2023/10/03 18:47:16;;;;;;;;;4.75;3.75;;;;;23.14;39.99;102207.34;4918869;28;45288;-51
2023/10/03 18:49:42;;;;;;;;;5.33;2.67;;;;;23.15;39.76;102209.06;4918336;28;57492;-49
2023/10/03 18:52:08;;;;;;;;;5.00;2.00;;;;;23.14;39.79;102212.63;4917892;28;47090;-53
2023/10/03 18:54:33;;;;;;;;;2.00;2.00;;;;;23.13;40.23;102218.84;4918930;28;45833;-46
2023/10/03 18:56:59;;;;;;;;;5.00;2.25;;;;;23.14;39.79;102227.66;4918424;28;52483;-46
2023/10/03 18:59:24;;;;;;;;;2.50;2.50;;;;;23.15;39.91;102224.09;4919048;28;45450;-49
2023/10/03 19:01:49;;;;;;;;;3.00;2.50;;;;;23.14;40.21;102228.50;4918667;28;46944;-50
2023/10/03 19:04:15;;;;;;;;;2.25;2.00;;;;;23.14;39.90;102239.09;4918852;28;45382;-48
2023/10/03 19:06:41;;;;;;;;;2.00;2.00;;;;;23.15;40.18;102245.25;4919108;28;45477;-50
2023/10/03 19:09:06;;;;;;;;;2.00;2.00;;;;;23.14;40.43;102238.25;4918995;28;45504;-52
2023/10/03 19:11:32;;;;;;;;;3.00;1.00;;;;;23.15;40.12;102250.53;4918440;28;47345;-53
2023/10/03 19:13:58;;;;;;;;;2.00;2.00;;;;;23.13;39.76;102247.09;4918360;28;45355;-47
2023/10/03 19:16:24;;;;;;;;;2.50;2.50;;;;;23.12;39.64;102248.88;4918653;28;45248;-49
2023/10/03 19:18:49;;;;;;;;;4.00;2.00;;;;;23.13;39.72;102257.69;4918943;28;45354;-49
2023/10/03 19:21:15;;;;;;;;;2.75;2.00;;;;;23.12;40.30;102261.25;4919394;28;46828;-48
2023/10/03 19:23:42;;;;;;;;;1.75;1.75;;;;;23.12;40.35;102262.09;4922229;28;45245;-56
2023/10/03 19:26:09;;;;;;;;;5.50;2.00;;;;;23.12;39.97;102274.47;4921879;28;45394;-51
2023/10/03 19:28:41;;;;;;;;;3.00;1.00;;;;;23.12;39.94;102280.59;4920913;28;45653;-49
2023/10/03 19:31:07;;;;;;;;;1.50;1.00;;;;;23.12;40.16;102287.69;4921851;28;46226;-51
2023/10/03 19:33:42;;;;;;;;;1.00;1.00;;;;;23.11;40.00;102291.25;4921849;28;45780;-47
2023/10/03 19:36:12;;;;;;;;;1.75;1.75;;;;;23.11;40.14;102294.75;4921994;28;45379;-51
2023/10/03 19:38:42;;;;;;;;;2.00;0.25;;;;;23.11;40.20;102307.97;4921884;28;45569;-46
2023/10/03 19:41:12;;;;;;;;;3.25;1.50;;;;;23.11;40.01;102302.69;4921614;28;46328;-45
2023/10/03 19:43:41;;;;;;;;;3.50;2.00;;;;;23.12;40.27;102303.56;4921669;28;45429;-47
2023/10/03 19:46:07;;;;;;;;;2.00;0.75;;;;;23.10;39.86;102303.59;4921773;28;45397;-47
2023/10/03 19:48:34;;;;;;;;;2.25;1.75;;;;;23.11;40.23;102305.31;4921832;28;45430;-50
2023/10/03 19:51:07;;;;;;;;;4.75;2.00;;;;;23.11;39.75;102301.84;4921456;28;46390;-50
2023/10/03 19:53:33;;;;;;;;;2.00;2.00;;;;;23.09;39.62;102309.84;4921441;28;45687;-52
2023/10/03 19:56:15;;;;;;;;;2.50;1.25;;;;;23.10;39.87;102315.97;4921519;28;45366;-48
2023/10/03 19:58:41;;;;;;;;;2.25;2.00;;;;;23.10;40.10;102322.13;4922018;28;45328;-49
2023/10/03 20:01:06;;;;;;;;;1.00;1.00;;;;;23.10;39.98;102330.06;4921278;28;45347;-53
2023/10/03 20:03:33;;;;;;;;;2.00;2.00;;;;;23.09;40.17;102324.84;4921318;28;45232;-48